sensor_id;sensor_type;location;lat;lon;timestamp;P1;durP1;ratioP1;P2;durP2;ratioP2
9809;SDS011;4944;52.514;13.192;2023-09-07T00:00:33;7.28;;;6.57;;
9809;SDS011;4944;52.514;13.192;2023-09-07T00:03:00;6.88;;;5.88;;
9809;SDS011;4944;52.514;13.192;2023-09-07T00:05:28;6.78;;;6.20;;
9809;SDS011;4944;52.514;13.192;2023-09-07T00:07:55;6.63;;;6.03;;
9809;SDS011;4944;52.514;13.192;2023-09-07T00:10:23;6.60;;;6.00;;
9809;SDS011;4944;52.514;13.192;2023-09-07T00:12:51;6.95;;;6.35;;
9809;SDS011;4944;52.514;13.192;2023-09-07T00:15:17;9.60;;;6.97;;
9809;SDS011;4944;52.514;13.192;2023-09-07T00:17:46;6.72;;;6.07;;
9809;SDS011;4944;52.514;13.192;2023-09-07T00:20:13;7.40;;;6.57;;
9809;SDS011;4944;52.514;13.192;2023-09-07T00:22:40;6.82;;;6.22;;
9809;SDS011;4944;52.514;13.192;2023-09-07T00:25:07;7.10;;;6.57;;
9809;SDS011;4944;52.514;13.192;2023-09-07T00:27:36;7.13;;;6.47;;
9809;SDS011;4944;52.514;13.192;2023-09-07T00:30:03;6.82;;;6.32;;
9809;SDS011;4944;52.514;13.192;2023-09-07T00:32:31;6.35;;;5.88;;
9809;SDS011;4944;52.514;13.192;2023-09-07T00:34:59;6.82;;;6.20;;
9809;SDS011;4944;52.514;13.192;2023-09-07T00:37:25;7.00;;;6.40;;
9809;SDS011;4944;52.514;13.192;2023-09-07T00:39:52;6.60;;;6.10;;
9809;SDS011;4944;52.514;13.192;2023-09-07T00:42:19;8.40;;;6.78;;
9809;SDS011;4944;52.514;13.192;2023-09-07T00:44:47;7.25;;;6.55;;
9809;SDS011;4944;52.514;13.192;2023-09-07T00:47:14;6.70;;;6.05;;
9809;SDS011;4944;52.514;13.192;2023-09-07T00:49:42;6.75;;;5.97;;
9809;SDS011;4944;52.514;13.192;2023-09-07T00:52:09;6.97;;;5.95;;
9809;SDS011;4944;52.514;13.192;2023-09-07T00:54:36;7.20;;;6.50;;
9809;SDS011;4944;52.514;13.192;2023-09-07T00:57:05;6.22;;;5.63;;
9809;SDS011;4944;52.514;13.192;2023-09-07T00:59:33;8.90;;;6.30;;
9809;SDS011;4944;52.514;13.192;2023-09-07T01:02:01;7.25;;;6.28;;
9809;SDS011;4944;52.514;13.192;2023-09-07T01:04:30;6.93;;;5.97;;
9809;SDS011;4944;52.514;13.192;2023-09-07T01:06:59;6.35;;;5.80;;
9809;SDS011;4944;52.514;13.192;2023-09-07T01:09:30;7.25;;;6.57;;
9809;SDS011;4944;52.514;13.192;2023-09-07T01:12:00;6.93;;;6.15;;
9809;SDS011;4944;52.514;13.192;2023-09-07T01:14:27;6.72;;;6.18;;
9809;SDS011;4944;52.514;13.192;2023-09-07T01:16:54;9.45;;;6.28;;
9809;SDS011;4944;52.514;13.192;2023-09-07T01:19:23;6.93;;;6.32;;
9809;SDS011;4944;52.514;13.192;2023-09-07T01:21:51;7.28;;;6.60;;
9809;SDS011;4944;52.514;13.192;2023-09-07T01:24:18;7.07;;;6.13;;
9809;SDS011;4944;52.514;13.192;2023-09-07T01:26:46;10.13;;;6.80;;
9809;SDS011;4944;52.514;13.192;2023-09-07T01:29:14;6.28;;;5.78;;
9809;SDS011;4944;52.514;13.192;2023-09-07T01:31:42;7.07;;;6.38;;
9809;SDS011;4944;52.514;13.192;2023-09-07T01:34:09;6.50;;;6.00;;
9809;SDS011;4944;52.514;13.192;2023-09-07T01:36:36;7.25;;;6.50;;
9809;SDS011;4944;52.514;13.192;2023-09-07T01:39:05;7.72;;;6.05;;
9809;SDS011;4944;52.514;13.192;2023-09-07T01:41:32;6.35;;;5.75;;
9809;SDS011;4944;52.514;13.192;2023-09-07T01:43:59;6.53;;;5.93;;
9809;SDS011;4944;52.514;13.192;2023-09-07T01:46:26;6.82;;;6.25;;
9809;SDS011;4944;52.514;13.192;2023-09-07T01:48:53;6.82;;;6.15;;
9809;SDS011;4944;52.514;13.192;2023-09-07T01:51:20;7.18;;;6.57;;
9809;SDS011;4944;52.514;13.192;2023-09-07T01:53:47;6.72;;;6.10;;
9809;SDS011;4944;52.514;13.192;2023-09-07T01:56:16;8.48;;;6.22;;
9809;SDS011;4944;52.514;13.192;2023-09-07T01:58:43;6.75;;;6.05;;
9809;SDS011;4944;52.514;13.192;2023-09-07T02:01:19;6.80;;;6.20;;
9809;SDS011;4944;52.514;13.192;2023-09-07T02:03:47;6.63;;;6.13;;
9809;SDS011;4944;52.514;13.192;2023-09-07T02:06:14;6.60;;;6.00;;
9809;SDS011;4944;52.514;13.192;2023-09-07T02:08:41;6.45;;;5.85;;
9809;SDS011;4944;52.514;13.192;2023-09-07T02:11:08;8.10;;;6.50;;
9809;SDS011;4944;52.514;13.192;2023-09-07T02:13:37;6.80;;;6.10;;
9809;SDS011;4944;52.514;13.192;2023-09-07T02:16:04;7.35;;;6.63;;
9809;SDS011;4944;52.514;13.192;2023-09-07T02:18:31;7.28;;;6.68;;
9809;SDS011;4944;52.514;13.192;2023-09-07T02:21:01;6.75;;;6.00;;
9809;SDS011;4944;52.514;13.192;2023-09-07T02:23:29;7.45;;;6.75;;
9809;SDS011;4944;52.514;13.192;2023-09-07T02:25:56;7.40;;;6.82;;
9809;SDS011;4944;52.514;13.192;2023-09-07T02:28:23;6.65;;;6.10;;
9809;SDS011;4944;52.514;13.192;2023-09-07T02:30:51;7.22;;;6.70;;
9809;SDS011;4944;52.514;13.192;2023-09-07T02:33:18;7.25;;;6.60;;
9809;SDS011;4944;52.514;13.192;2023-09-07T02:35:47;6.97;;;6.30;;
9809;SDS011;4944;52.514;13.192;2023-09-07T02:38:14;6.60;;;6.13;;
9809;SDS011;4944;52.514;13.192;2023-09-07T02:40:41;6.93;;;6.07;;
9809;SDS011;4944;52.514;13.192;2023-09-07T02:43:09;7.25;;;6.47;;
9809;SDS011;4944;52.514;13.192;2023-09-07T02:45:36;7.15;;;6.45;;
9809;SDS011;4944;52.514;13.192;2023-09-07T02:48:05;7.20;;;6.60;;
9809;SDS011;4944;52.514;13.192;2023-09-07T02:50:33;7.20;;;6.50;;
9809;SDS011;4944;52.514;13.192;2023-09-07T02:53:00;6.68;;;6.07;;
9809;SDS011;4944;52.514;13.192;2023-09-07T02:55:28;6.32;;;5.82;;
9809;SDS011;4944;52.514;13.192;2023-09-07T02:57:55;6.55;;;6.05;;
9809;SDS011;4944;52.514;13.192;2023-09-07T03:00:23;6.93;;;6.32;;
9809;SDS011;4944;52.514;13.192;2023-09-07T03:02:50;7.13;;;6.50;;
9809;SDS011;4944;52.514;13.192;2023-09-07T03:05:19;6.90;;;6.30;;
9809;SDS011;4944;52.514;13.192;2023-09-07T03:07:46;7.82;;;6.40;;
9809;SDS011;4944;52.514;13.192;2023-09-07T03:10:13;9.13;;;6.22;;
9809;SDS011;4944;52.514;13.192;2023-09-07T03:12:40;8.00;;;6.63;;
9809;SDS011;4944;52.514;13.192;2023-09-07T03:15:07;6.72;;;6.20;;
9809;SDS011;4944;52.514;13.192;2023-09-07T03:17:34;7.38;;;6.50;;
9809;SDS011;4944;52.514;13.192;2023-09-07T03:20:01;7.40;;;6.80;;
9809;SDS011;4944;52.514;13.192;2023-09-07T03:22:40;7.00;;;6.45;;
9809;SDS011;4944;52.514;13.192;2023-09-07T03:25:07;6.95;;;6.35;;
9809;SDS011;4944;52.514;13.192;2023-09-07T03:27:35;6.33;;;5.83;;
9809;SDS011;4944;52.514;13.192;2023-09-07T03:30:02;6.82;;;6.32;;
9809;SDS011;4944;52.514;13.192;2023-09-07T03:32:30;6.80;;;6.20;;
9809;SDS011;4944;52.514;13.192;2023-09-07T03:34:58;6.97;;;6.47;;
9809;SDS011;4944;52.514;13.192;2023-09-07T03:37:25;6.97;;;6.47;;
9809;SDS011;4944;52.514;13.192;2023-09-07T03:39:54;6.97;;;6.37;;
9809;SDS011;4944;52.514;13.192;2023-09-07T03:42:22;7.00;;;6.40;;
9809;SDS011;4944;52.514;13.192;2023-09-07T03:44:49;8.90;;;6.32;;
9809;SDS011;4944;52.514;13.192;2023-09-07T03:47:16;8.23;;;6.60;;
9809;SDS011;4944;52.514;13.192;2023-09-07T03:49:43;6.83;;;6.20;;
9809;SDS011;4944;52.514;13.192;2023-09-07T03:52:10;7.23;;;6.63;;
9809;SDS011;4944;52.514;13.192;2023-09-07T03:54:37;7.57;;;6.70;;
9809;SDS011;4944;52.514;13.192;2023-09-07T03:57:06;7.90;;;6.97;;
9809;SDS011;4944;52.514;13.192;2023-09-07T03:59:32;7.38;;;6.22;;
9809;SDS011;4944;52.514;13.192;2023-09-07T04:01:59;6.60;;;6.10;;
9809;SDS011;4944;52.514;13.192;2023-09-07T04:04:26;7.22;;;6.63;;
9809;SDS011;4944;52.514;13.192;2023-09-07T04:06:53;8.88;;;6.70;;
9809;SDS011;4944;52.514;13.192;2023-09-07T04:09:20;7.53;;;6.78;;
9809;SDS011;4944;52.514;13.192;2023-09-07T04:11:47;7.50;;;6.70;;
9809;SDS011;4944;52.514;13.192;2023-09-07T04:14:15;7.77;;;6.67;;
9809;SDS011;4944;52.514;13.192;2023-09-07T04:16:42;7.33;;;6.57;;
9809;SDS011;4944;52.514;13.192;2023-09-07T04:19:09;7.25;;;6.55;;
9809;SDS011;4944;52.514;13.192;2023-09-07T04:21:36;8.52;;;6.70;;
9809;SDS011;4944;52.514;13.192;2023-09-07T04:24:04;6.93;;;6.33;;
9809;SDS011;4944;52.514;13.192;2023-09-07T04:26:31;9.68;;;6.43;;
9809;SDS011;4944;52.514;13.192;2023-09-07T04:28:59;7.97;;;6.40;;
9809;SDS011;4944;52.514;13.192;2023-09-07T04:31:27;7.45;;;6.63;;
9809;SDS011;4944;52.514;13.192;2023-09-07T04:33:54;7.17;;;6.57;;
9809;SDS011;4944;52.514;13.192;2023-09-07T04:36:21;6.93;;;6.32;;
9809;SDS011;4944;52.514;13.192;2023-09-07T04:38:48;6.90;;;6.40;;
9809;SDS011;4944;52.514;13.192;2023-09-07T04:41:15;11.73;;;7.47;;
9809;SDS011;4944;52.514;13.192;2023-09-07T04:43:42;7.55;;;6.38;;
9809;SDS011;4944;52.514;13.192;2023-09-07T04:46:09;7.33;;;6.63;;
9809;SDS011;4944;52.514;13.192;2023-09-07T04:48:38;14.95;;;6.82;;
9809;SDS011;4944;52.514;13.192;2023-09-07T04:51:06;10.00;;;6.90;;
9809;SDS011;4944;52.514;13.192;2023-09-07T04:53:35;8.60;;;6.78;;
9809;SDS011;4944;52.514;13.192;2023-09-07T04:56:03;8.07;;;6.68;;
9809;SDS011;4944;52.514;13.192;2023-09-07T04:58:31;7.47;;;6.73;;
9809;SDS011;4944;52.514;13.192;2023-09-07T05:01:01;7.15;;;6.35;;
9809;SDS011;4944;52.514;13.192;2023-09-07T05:03:28;10.53;;;6.77;;
9809;SDS011;4944;52.514;13.192;2023-09-07T05:05:57;23.02;;;8.40;;
9809;SDS011;4944;52.514;13.192;2023-09-07T05:08:24;15.13;;;8.07;;
9809;SDS011;4944;52.514;13.192;2023-09-07T05:10:54;12.00;;;6.97;;
9809;SDS011;4944;52.514;13.192;2023-09-07T05:13:21;14.40;;;8.17;;
9809;SDS011;4944;52.514;13.192;2023-09-07T05:15:48;12.07;;;7.83;;
9809;SDS011;4944;52.514;13.192;2023-09-07T05:18:15;14.03;;;8.03;;
9809;SDS011;4944;52.514;13.192;2023-09-07T05:20:42;10.67;;;7.17;;
9809;SDS011;4944;52.514;13.192;2023-09-07T05:23:12;16.40;;;7.95;;
9809;SDS011;4944;52.514;13.192;2023-09-07T05:25:42;11.60;;;7.53;;
9809;SDS011;4944;52.514;13.192;2023-09-07T05:28:10;18.88;;;7.50;;
9809;SDS011;4944;52.514;13.192;2023-09-07T05:30:38;13.05;;;7.93;;
9809;SDS011;4944;52.514;13.192;2023-09-07T05:33:05;16.55;;;7.50;;
9809;SDS011;4944;52.514;13.192;2023-09-07T05:35:33;8.60;;;7.00;;
9809;SDS011;4944;52.514;13.192;2023-09-07T05:38:00;10.23;;;7.27;;
9809;SDS011;4944;52.514;13.192;2023-09-07T05:40:29;9.70;;;7.30;;
9809;SDS011;4944;52.514;13.192;2023-09-07T05:42:59;15.30;;;7.33;;
9809;SDS011;4944;52.514;13.192;2023-09-07T05:45:26;12.57;;;8.23;;
9809;SDS011;4944;52.514;13.192;2023-09-07T05:47:53;10.43;;;7.40;;
9809;SDS011;4944;52.514;13.192;2023-09-07T05:50:20;7.97;;;7.15;;
9809;SDS011;4944;52.514;13.192;2023-09-07T05:52:47;14.53;;;7.87;;
9809;SDS011;4944;52.514;13.192;2023-09-07T05:55:14;15.80;;;8.00;;
9809;SDS011;4944;52.514;13.192;2023-09-07T05:57:42;13.65;;;7.85;;
9809;SDS011;4944;52.514;13.192;2023-09-07T06:00:09;8.50;;;7.10;;
9809;SDS011;4944;52.514;13.192;2023-09-07T06:02:37;10.37;;;7.53;;
9809;SDS011;4944;52.514;13.192;2023-09-07T06:05:05;10.60;;;7.85;;
9809;SDS011;4944;52.514;13.192;2023-09-07T06:07:32;11.15;;;7.32;;
9809;SDS011;4944;52.514;13.192;2023-09-07T06:09:59;11.18;;;7.47;;
9809;SDS011;4944;52.514;13.192;2023-09-07T06:12:26;16.40;;;8.00;;
9809;SDS011;4944;52.514;13.192;2023-09-07T06:14:55;11.23;;;7.17;;
9809;SDS011;4944;52.514;13.192;2023-09-07T06:17:21;18.35;;;8.68;;
9809;SDS011;4944;52.514;13.192;2023-09-07T06:19:48;11.35;;;7.90;;
9809;SDS011;4944;52.514;13.192;2023-09-07T06:22:15;9.95;;;7.68;;
9809;SDS011;4944;52.514;13.192;2023-09-07T06:24:42;9.20;;;7.50;;
9809;SDS011;4944;52.514;13.192;2023-09-07T06:27:09;10.07;;;7.30;;
9809;SDS011;4944;52.514;13.192;2023-09-07T06:29:36;10.68;;;6.93;;
9809;SDS011;4944;52.514;13.192;2023-09-07T06:32:04;11.95;;;6.72;;
9809;SDS011;4944;52.514;13.192;2023-09-07T06:34:31;15.55;;;7.05;;
9809;SDS011;4944;52.514;13.192;2023-09-07T06:36:58;7.85;;;7.15;;
9809;SDS011;4944;52.514;13.192;2023-09-07T06:39:26;8.82;;;7.13;;
9809;SDS011;4944;52.514;13.192;2023-09-07T06:41:52;14.93;;;8.18;;
9809;SDS011;4944;52.514;13.192;2023-09-07T06:44:19;12.80;;;9.30;;
9809;SDS011;4944;52.514;13.192;2023-09-07T06:46:46;12.02;;;7.20;;
9809;SDS011;4944;52.514;13.192;2023-09-07T06:49:15;14.82;;;6.75;;
9809;SDS011;4944;52.514;13.192;2023-09-07T06:51:42;17.55;;;7.40;;
9809;SDS011;4944;52.514;13.192;2023-09-07T06:54:09;7.55;;;6.60;;
9809;SDS011;4944;52.514;13.192;2023-09-07T06:56:36;9.00;;;6.40;;
9809;SDS011;4944;52.514;13.192;2023-09-07T06:59:03;9.20;;;5.97;;
9809;SDS011;4944;52.514;13.192;2023-09-07T07:01:30;18.73;;;5.97;;
9809;SDS011;4944;52.514;13.192;2023-09-07T07:03:57;7.70;;;5.20;;
9809;SDS011;4944;52.514;13.192;2023-09-07T07:06:25;7.65;;;5.80;;
9809;SDS011;4944;52.514;13.192;2023-09-07T07:08:52;6.15;;;5.18;;
9809;SDS011;4944;52.514;13.192;2023-09-07T07:11:19;20.30;;;6.00;;
9809;SDS011;4944;52.514;13.192;2023-09-07T07:13:46;9.65;;;5.38;;
9809;SDS011;4944;52.514;13.192;2023-09-07T07:16:12;9.60;;;4.95;;
9809;SDS011;4944;52.514;13.192;2023-09-07T07:18:39;8.15;;;5.15;;
9809;SDS011;4944;52.514;13.192;2023-09-07T07:21:06;5.57;;;4.93;;
9809;SDS011;4944;52.514;13.192;2023-09-07T07:23:35;7.18;;;4.80;;
9809;SDS011;4944;52.514;13.192;2023-09-07T07:26:02;8.00;;;4.63;;
9809;SDS011;4944;52.514;13.192;2023-09-07T07:28:29;9.00;;;4.85;;
9809;SDS011;4944;52.514;13.192;2023-09-07T07:30:56;6.57;;;5.05;;
9809;SDS011;4944;52.514;13.192;2023-09-07T07:33:23;6.88;;;5.18;;
9809;SDS011;4944;52.514;13.192;2023-09-07T07:35:50;6.43;;;5.03;;
9809;SDS011;4944;52.514;13.192;2023-09-07T07:38:17;9.05;;;4.60;;
9809;SDS011;4944;52.514;13.192;2023-09-07T07:40:46;8.07;;;5.20;;
9809;SDS011;4944;52.514;13.192;2023-09-07T07:43:12;8.75;;;5.20;;
9809;SDS011;4944;52.514;13.192;2023-09-07T07:45:41;6.57;;;4.72;;
9809;SDS011;4944;52.514;13.192;2023-09-07T07:48:07;6.38;;;4.53;;
9809;SDS011;4944;52.514;13.192;2023-09-07T07:50:36;9.00;;;4.85;;
9809;SDS011;4944;52.514;13.192;2023-09-07T07:53:05;6.93;;;4.57;;
9809;SDS011;4944;52.514;13.192;2023-09-07T07:55:34;9.15;;;4.60;;
9809;SDS011;4944;52.514;13.192;2023-09-07T07:58:05;7.82;;;4.97;;
9809;SDS011;4944;52.514;13.192;2023-09-07T08:00:32;25.40;;;15.50;;
9809;SDS011;4944;52.514;13.192;2023-09-07T08:03:00;7.30;;;6.50;;
9809;SDS011;4944;52.514;13.192;2023-09-07T08:05:28;5.50;;;4.97;;
9809;SDS011;4944;52.514;13.192;2023-09-07T08:07:55;6.45;;;5.10;;
9809;SDS011;4944;52.514;13.192;2023-09-07T08:10:22;6.68;;;5.00;;
9809;SDS011;4944;52.514;13.192;2023-09-07T08:12:52;7.10;;;4.68;;
9809;SDS011;4944;52.514;13.192;2023-09-07T08:15:22;5.40;;;4.53;;
9809;SDS011;4944;52.514;13.192;2023-09-07T08:17:50;6.35;;;4.85;;
9809;SDS011;4944;52.514;13.192;2023-09-07T08:20:17;6.50;;;4.65;;
9809;SDS011;4944;52.514;13.192;2023-09-07T08:22:44;6.95;;;4.75;;
9809;SDS011;4944;52.514;13.192;2023-09-07T08:25:11;4.95;;;4.45;;
9809;SDS011;4944;52.514;13.192;2023-09-07T08:27:39;7.50;;;5.00;;
9809;SDS011;4944;52.514;13.192;2023-09-07T08:30:10;5.60;;;4.25;;
9809;SDS011;4944;52.514;13.192;2023-09-07T08:32:39;7.57;;;4.53;;
9809;SDS011;4944;52.514;13.192;2023-09-07T08:35:08;5.20;;;4.70;;
9809;SDS011;4944;52.514;13.192;2023-09-07T08:37:38;4.82;;;4.43;;
9809;SDS011;4944;52.514;13.192;2023-09-07T08:40:05;4.82;;;4.35;;
9809;SDS011;4944;52.514;13.192;2023-09-07T08:42:33;10.23;;;4.45;;
9809;SDS011;4944;52.514;13.192;2023-09-07T08:45:02;5.05;;;4.35;;
9809;SDS011;4944;52.514;13.192;2023-09-07T08:47:32;5.32;;;4.35;;
9809;SDS011;4944;52.514;13.192;2023-09-07T08:50:01;5.28;;;4.38;;
9809;SDS011;4944;52.514;13.192;2023-09-07T08:52:31;5.32;;;4.25;;
9809;SDS011;4944;52.514;13.192;2023-09-07T08:54:58;6.20;;;4.50;;
9809;SDS011;4944;52.514;13.192;2023-09-07T08:57:26;6.45;;;4.53;;
9809;SDS011;4944;52.514;13.192;2023-09-07T08:59:55;4.80;;;4.38;;
9809;SDS011;4944;52.514;13.192;2023-09-07T09:02:22;5.03;;;4.53;;
9809;SDS011;4944;52.514;13.192;2023-09-07T09:04:50;4.82;;;4.15;;
9809;SDS011;4944;52.514;13.192;2023-09-07T09:07:18;5.32;;;4.57;;
9809;SDS011;4944;52.514;13.192;2023-09-07T09:09:46;5.75;;;4.28;;
9809;SDS011;4944;52.514;13.192;2023-09-07T09:12:13;4.18;;;3.83;;
9809;SDS011;4944;52.514;13.192;2023-09-07T09:14:41;4.80;;;4.25;;
9809;SDS011;4944;52.514;13.192;2023-09-07T09:17:13;5.30;;;4.00;;
9809;SDS011;4944;52.514;13.192;2023-09-07T09:19:41;4.75;;;4.22;;
9809;SDS011;4944;52.514;13.192;2023-09-07T09:22:08;4.30;;;4.00;;
9809;SDS011;4944;52.514;13.192;2023-09-07T09:24:37;7.90;;;4.38;;
9809;SDS011;4944;52.514;13.192;2023-09-07T09:27:04;4.90;;;4.20;;
9809;SDS011;4944;52.514;13.192;2023-09-07T09:29:34;7.28;;;4.03;;
9809;SDS011;4944;52.514;13.192;2023-09-07T09:32:02;5.00;;;4.25;;
9809;SDS011;4944;52.514;13.192;2023-09-07T09:34:32;4.47;;;4.05;;
9809;SDS011;4944;52.514;13.192;2023-09-07T09:37:00;5.80;;;4.43;;
9809;SDS011;4944;52.514;13.192;2023-09-07T09:39:28;5.38;;;4.88;;
9809;SDS011;4944;52.514;13.192;2023-09-07T09:41:57;4.90;;;4.28;;
9809;SDS011;4944;52.514;13.192;2023-09-07T09:44:24;6.85;;;4.20;;
9809;SDS011;4944;52.514;13.192;2023-09-07T09:46:55;4.82;;;4.43;;
9809;SDS011;4944;52.514;13.192;2023-09-07T09:49:23;5.82;;;4.25;;
9809;SDS011;4944;52.514;13.192;2023-09-07T09:51:51;5.97;;;4.57;;
9809;SDS011;4944;52.514;13.192;2023-09-07T09:54:18;4.35;;;4.05;;
9809;SDS011;4944;52.514;13.192;2023-09-07T09:56:45;7.07;;;4.47;;
9809;SDS011;4944;52.514;13.192;2023-09-07T09:59:14;5.07;;;4.68;;
9809;SDS011;4944;52.514;13.192;2023-09-07T10:01:42;5.22;;;3.95;;
9809;SDS011;4944;52.514;13.192;2023-09-07T10:04:11;7.63;;;4.70;;
9809;SDS011;4944;52.514;13.192;2023-09-07T10:06:49;6.55;;;5.90;;
9809;SDS011;4944;52.514;13.192;2023-09-07T10:09:17;5.50;;;5.10;;
9809;SDS011;4944;52.514;13.192;2023-09-07T10:11:50;6.60;;;4.63;;
9809;SDS011;4944;52.514;13.192;2023-09-07T10:14:19;5.95;;;4.40;;
9809;SDS011;4944;52.514;13.192;2023-09-07T10:16:47;4.32;;;3.97;;
9809;SDS011;4944;52.514;13.192;2023-09-07T10:19:15;5.00;;;4.60;;
9809;SDS011;4944;52.514;13.192;2023-09-07T10:21:43;9.88;;;9.07;;
9809;SDS011;4944;52.514;13.192;2023-09-07T10:24:10;5.82;;;4.47;;
9809;SDS011;4944;52.514;13.192;2023-09-07T10:26:37;6.20;;;4.35;;
9809;SDS011;4944;52.514;13.192;2023-09-07T10:29:04;5.63;;;4.38;;
9809;SDS011;4944;52.514;13.192;2023-09-07T10:31:32;4.35;;;4.15;;
9809;SDS011;4944;52.514;13.192;2023-09-07T10:34:08;4.22;;;3.80;;
9809;SDS011;4944;52.514;13.192;2023-09-07T10:36:37;4.40;;;4.10;;
9809;SDS011;4944;52.514;13.192;2023-09-07T10:39:04;7.00;;;4.35;;
9809;SDS011;4944;52.514;13.192;2023-09-07T10:41:41;4.13;;;3.83;;
9809;SDS011;4944;52.514;13.192;2023-09-07T10:44:09;4.68;;;4.20;;
9809;SDS011;4944;52.514;13.192;2023-09-07T10:46:39;4.82;;;4.38;;
9809;SDS011;4944;52.514;13.192;2023-09-07T10:49:06;4.07;;;3.70;;
9809;SDS011;4944;52.514;13.192;2023-09-07T10:51:39;3.83;;;3.50;;
9809;SDS011;4944;52.514;13.192;2023-09-07T10:54:15;4.40;;;4.00;;
9809;SDS011;4944;52.514;13.192;2023-09-07T10:56:43;5.03;;;4.50;;
9809;SDS011;4944;52.514;13.192;2023-09-07T10:59:10;4.85;;;4.35;;
9809;SDS011;4944;52.514;13.192;2023-09-07T11:01:39;5.20;;;3.83;;
9809;SDS011;4944;52.514;13.192;2023-09-07T11:04:06;4.78;;;3.80;;
9809;SDS011;4944;52.514;13.192;2023-09-07T11:06:36;7.55;;;4.00;;
9809;SDS011;4944;52.514;13.192;2023-09-07T11:09:03;4.40;;;4.00;;
9809;SDS011;4944;52.514;13.192;2023-09-07T11:11:33;4.45;;;4.07;;
9809;SDS011;4944;52.514;13.192;2023-09-07T11:14:01;5.80;;;3.78;;
9809;SDS011;4944;52.514;13.192;2023-09-07T11:16:29;4.28;;;3.97;;
9809;SDS011;4944;52.514;13.192;2023-09-07T11:18:59;4.65;;;4.20;;
9809;SDS011;4944;52.514;13.192;2023-09-07T11:21:29;4.13;;;3.83;;
9809;SDS011;4944;52.514;13.192;2023-09-07T11:23:57;4.97;;;4.10;;
9809;SDS011;4944;52.514;13.192;2023-09-07T11:26:24;4.60;;;4.20;;
9809;SDS011;4944;52.514;13.192;2023-09-07T11:28:51;5.07;;;4.35;;
9809;SDS011;4944;52.514;13.192;2023-09-07T11:31:18;4.55;;;4.07;;
9809;SDS011;4944;52.514;13.192;2023-09-07T11:33:47;4.68;;;4.35;;
9809;SDS011;4944;52.514;13.192;2023-09-07T11:36:15;4.03;;;3.75;;
9809;SDS011;4944;52.514;13.192;2023-09-07T11:38:43;4.10;;;3.80;;
9809;SDS011;4944;52.514;13.192;2023-09-07T11:41:10;4.07;;;3.78;;
9809;SDS011;4944;52.514;13.192;2023-09-07T11:43:37;10.32;;;4.18;;
9809;SDS011;4944;52.514;13.192;2023-09-07T11:46:05;4.10;;;3.80;;
9809;SDS011;4944;52.514;13.192;2023-09-07T11:48:31;4.57;;;4.18;;
9809;SDS011;4944;52.514;13.192;2023-09-07T11:50:59;4.70;;;4.22;;
9809;SDS011;4944;52.514;13.192;2023-09-07T11:53:28;9.20;;;4.18;;
9809;SDS011;4944;52.514;13.192;2023-09-07T11:55:55;4.47;;;3.80;;
9809;SDS011;4944;52.514;13.192;2023-09-07T11:58:24;4.03;;;3.63;;
9809;SDS011;4944;52.514;13.192;2023-09-07T12:00:52;4.50;;;4.10;;
9809;SDS011;4944;52.514;13.192;2023-09-07T12:03:19;11.38;;;4.13;;
9809;SDS011;4944;52.514;13.192;2023-09-07T12:05:46;7.18;;;3.63;;
9809;SDS011;4944;52.514;13.192;2023-09-07T12:08:13;3.97;;;3.63;;
9809;SDS011;4944;52.514;13.192;2023-09-07T12:10:42;4.28;;;3.88;;
9809;SDS011;4944;52.514;13.192;2023-09-07T12:13:08;4.30;;;3.63;;
9809;SDS011;4944;52.514;13.192;2023-09-07T12:15:35;4.47;;;4.07;;
9809;SDS011;4944;52.514;13.192;2023-09-07T12:18:02;4.10;;;3.78;;
9809;SDS011;4944;52.514;13.192;2023-09-07T12:20:30;3.38;;;3.17;;
9809;SDS011;4944;52.514;13.192;2023-09-07T12:22:57;3.60;;;3.40;;
9809;SDS011;4944;52.514;13.192;2023-09-07T12:25:23;3.65;;;3.35;;
9809;SDS011;4944;52.514;13.192;2023-09-07T12:27:53;3.22;;;3.00;;
9809;SDS011;4944;52.514;13.192;2023-09-07T12:30:20;3.55;;;3.15;;
9809;SDS011;4944;52.514;13.192;2023-09-07T12:32:48;4.30;;;3.90;;
9809;SDS011;4944;52.514;13.192;2023-09-07T12:35:16;7.68;;;3.78;;
9809;SDS011;4944;52.514;13.192;2023-09-07T12:37:43;3.40;;;3.20;;
9809;SDS011;4944;52.514;13.192;2023-09-07T12:40:11;3.35;;;3.05;;
9809;SDS011;4944;52.514;13.192;2023-09-07T12:42:39;3.80;;;3.17;;
9809;SDS011;4944;52.514;13.192;2023-09-07T12:45:08;3.80;;;3.40;;
9809;SDS011;4944;52.514;13.192;2023-09-07T12:47:36;4.75;;;3.83;;
9809;SDS011;4944;52.514;13.192;2023-09-07T12:50:04;3.47;;;3.28;;
9809;SDS011;4944;52.514;13.192;2023-09-07T12:52:32;4.70;;;3.53;;
9809;SDS011;4944;52.514;13.192;2023-09-07T12:55:00;3.55;;;3.30;;
9809;SDS011;4944;52.514;13.192;2023-09-07T12:57:27;3.67;;;3.47;;
9809;SDS011;4944;52.514;13.192;2023-09-07T12:59:54;3.92;;;3.50;;
9809;SDS011;4944;52.514;13.192;2023-09-07T13:02:22;5.05;;;3.55;;
9809;SDS011;4944;52.514;13.192;2023-09-07T13:04:50;5.22;;;3.55;;
9809;SDS011;4944;52.514;13.192;2023-09-07T13:07:17;5.35;;;3.40;;
9809;SDS011;4944;52.514;13.192;2023-09-07T13:09:44;3.80;;;3.50;;
9809;SDS011;4944;52.514;13.192;2023-09-07T13:12:11;4.15;;;3.75;;
9809;SDS011;4944;52.514;13.192;2023-09-07T13:14:38;3.70;;;3.40;;
9809;SDS011;4944;52.514;13.192;2023-09-07T13:17:05;4.25;;;3.95;;
9809;SDS011;4944;52.514;13.192;2023-09-07T13:19:33;5.63;;;3.90;;
9809;SDS011;4944;52.514;13.192;2023-09-07T13:22:00;4.65;;;3.97;;
9809;SDS011;4944;52.514;13.192;2023-09-07T13:24:27;7.60;;;4.70;;
9809;SDS011;4944;52.514;13.192;2023-09-07T13:26:54;3.90;;;3.60;;
9809;SDS011;4944;52.514;13.192;2023-09-07T13:29:21;4.20;;;3.90;;
9809;SDS011;4944;52.514;13.192;2023-09-07T13:31:48;5.93;;;4.45;;
9809;SDS011;4944;52.514;13.192;2023-09-07T13:34:17;4.55;;;4.00;;
9809;SDS011;4944;52.514;13.192;2023-09-07T13:36:46;5.10;;;3.83;;
9809;SDS011;4944;52.514;13.192;2023-09-07T13:39:13;4.18;;;3.88;;
9809;SDS011;4944;52.514;13.192;2023-09-07T13:41:40;4.32;;;3.95;;
9809;SDS011;4944;52.514;13.192;2023-09-07T13:44:06;4.45;;;4.05;;
9809;SDS011;4944;52.514;13.192;2023-09-07T13:46:33;4.25;;;3.90;;
9809;SDS011;4944;52.514;13.192;2023-09-07T13:49:00;4.40;;;4.00;;
9809;SDS011;4944;52.514;13.192;2023-09-07T13:51:27;7.05;;;4.38;;
9809;SDS011;4944;52.514;13.192;2023-09-07T13:54:01;6.13;;;4.20;;
9809;SDS011;4944;52.514;13.192;2023-09-07T13:56:28;10.75;;;4.40;;
9809;SDS011;4944;52.514;13.192;2023-09-07T13:58:55;6.60;;;3.78;;
9809;SDS011;4944;52.514;13.192;2023-09-07T14:01:22;4.20;;;3.97;;
9809;SDS011;4944;52.514;13.192;2023-09-07T14:03:49;9.32;;;4.13;;
9809;SDS011;4944;52.514;13.192;2023-09-07T14:06:16;4.57;;;4.18;;
9809;SDS011;4944;52.514;13.192;2023-09-07T14:08:45;5.47;;;3.70;;
9809;SDS011;4944;52.514;13.192;2023-09-07T14:11:15;3.97;;;3.70;;
9809;SDS011;4944;52.514;13.192;2023-09-07T14:13:41;5.30;;;3.53;;
9809;SDS011;4944;52.514;13.192;2023-09-07T14:16:08;3.75;;;3.45;;
9809;SDS011;4944;52.514;13.192;2023-09-07T14:18:35;6.88;;;3.88;;
9809;SDS011;4944;52.514;13.192;2023-09-07T14:21:02;4.13;;;3.72;;
9809;SDS011;4944;52.514;13.192;2023-09-07T14:23:29;4.30;;;3.90;;
9809;SDS011;4944;52.514;13.192;2023-09-07T14:25:56;4.50;;;4.00;;
9809;SDS011;4944;52.514;13.192;2023-09-07T14:28:25;3.60;;;3.35;;
9809;SDS011;4944;52.514;13.192;2023-09-07T14:30:52;4.30;;;3.83;;
9809;SDS011;4944;52.514;13.192;2023-09-07T14:33:19;4.18;;;3.45;;
9809;SDS011;4944;52.514;13.192;2023-09-07T14:35:47;6.18;;;3.78;;
9809;SDS011;4944;52.514;13.192;2023-09-07T14:38:19;5.30;;;4.30;;
9809;SDS011;4944;52.514;13.192;2023-09-07T14:40:46;4.45;;;3.42;;
9809;SDS011;4944;52.514;13.192;2023-09-07T14:43:15;4.75;;;3.80;;
9809;SDS011;4944;52.514;13.192;2023-09-07T14:45:43;4.22;;;3.33;;
9809;SDS011;4944;52.514;13.192;2023-09-07T14:48:10;4.07;;;3.70;;
9809;SDS011;4944;52.514;13.192;2023-09-07T14:50:37;4.53;;;4.22;;
9809;SDS011;4944;52.514;13.192;2023-09-07T14:53:04;6.15;;;4.13;;
9809;SDS011;4944;52.514;13.192;2023-09-07T14:55:31;4.53;;;4.15;;
9809;SDS011;4944;52.514;13.192;2023-09-07T14:57:58;4.20;;;3.80;;
9809;SDS011;4944;52.514;13.192;2023-09-07T15:00:25;4.25;;;3.95;;
9809;SDS011;4944;52.514;13.192;2023-09-07T15:02:53;5.43;;;4.03;;